MMTG/TGZ METAR and TAF weather

Enter ICAO airport designator
Station Type Date Time Source
MMTG METAR 2020/04/04 04:52 UTC NOAA

MMTG 040452Z 26005KT 8SM SCT080 SCT300 25/18 A2991 RMK 8/032


Station Type Date Time Source
MMTG Decoded METAR 2020/04/04 04:52 UTC NOAA

Tuxtla Gutierrez, Chis., Mexico (MMTG) 16-45N 093-07W
Apr 04, 2020 - 12:52 AM EDT / 2020.04.04 0452 UTC
Wind: from the W (260 degrees) at 6 MPH (5 KT):0
Visibility: 8 mile(s):0
Sky conditions: partly cloudy
Temperature: 77 F (25 C)
Dew Point: 64 F (18 C)
Relative Humidity: 65%
Pressure (altimeter): 29.91 in. Hg (1012 hPa)
ob: MMTG 040452Z 26005KT 8SM SCT080 SCT300 25/18 A2991 RMK 8/032
cycle: 5

Station Type Date Time Source
MMTG TAF 2020/04/04 06:20 UTC NOAA

TAF MMTG 040513Z 0406/0506 26005KT P6SM SCT250
BECMG 0410/0411 18006KT
FM042000 32012KT P6SM SCT025 BKN080 BKN250
FM050500 28005KT P6SM SCT080 SCT250

Example: see airport list